createdAt,value
2023-01-20T13:55:44.226Z,4.75
2023-01-20T13:58:32.049Z,8.35
2023-01-20T14:01:00.513Z,9.07
2023-01-20T14:03:35.164Z,8.57
2023-01-20T14:06:14.232Z,7.85
2023-01-20T14:08:53.537Z,9.43
2023-01-20T14:11:24.148Z,6.97
2023-01-20T14:13:59.598Z,8.27
2023-01-20T14:16:28.453Z,5.70
2023-01-20T14:18:59.026Z,9.35
2023-01-20T14:21:29.754Z,8.63
2023-01-20T14:23:57.450Z,5.72
2023-01-20T14:26:30.215Z,8.70
2023-01-20T14:29:00.028Z,8.50
2023-01-20T14:31:46.202Z,10.05
2023-01-20T14:34:33.146Z,9.27
2023-01-20T14:37:20.244Z,8.52
2023-01-20T14:39:51.697Z,8.27
2023-01-20T14:42:20.999Z,8.88
2023-01-20T14:44:53.062Z,7.72
2023-01-20T14:47:22.288Z,9.00
2023-01-20T14:49:51.913Z,10.60
2023-01-20T14:52:26.490Z,10.32
2023-01-20T14:54:56.488Z,9.05
2023-01-20T14:57:26.645Z,7.97
2023-01-20T15:00:12.013Z,8.38
2023-01-20T15:02:42.706Z,10.00
2023-01-20T15:05:31.402Z,9.30
2023-01-20T15:08:18.813Z,8.85
2023-01-20T15:10:46.511Z,6.85
2023-01-20T15:13:31.241Z,9.30
2023-01-20T15:16:16.669Z,5.20
2023-01-20T15:19:17.607Z,7.72
2023-01-20T15:21:50.656Z,10.85
2023-01-20T15:24:23.033Z,9.43
2023-01-20T15:26:53.045Z,9.05
2023-01-20T15:29:27.778Z,8.48
2023-01-20T15:31:58.878Z,10.48
2023-01-20T15:34:30.614Z,10.85
2023-01-20T15:36:57.941Z,9.18
2023-01-20T15:39:30.389Z,9.93
2023-01-20T15:41:58.276Z,7.60
2023-01-20T15:44:26.383Z,10.48
2023-01-20T15:46:57.136Z,9.70
2023-01-20T15:49:25.680Z,10.45
2023-01-20T15:51:53.066Z,9.68
2023-01-20T15:54:20.159Z,10.30
2023-01-20T15:56:47.524Z,10.85
2023-01-20T15:59:22.669Z,11.10
2023-01-20T16:01:50.480Z,12.00
2023-01-20T16:04:17.601Z,12.82
2023-01-20T16:06:44.893Z,9.00
2023-01-20T16:09:25.349Z,11.98
2023-01-20T16:11:52.895Z,11.82
2023-01-20T16:14:19.723Z,10.85
2023-01-20T16:16:46.791Z,11.38
2023-01-20T16:19:14.626Z,11.57
2023-01-20T16:21:43.741Z,9.02
2023-01-20T16:24:12.576Z,8.52
2023-01-20T16:26:39.613Z,7.90
2023-01-20T16:29:06.375Z,9.82
2023-01-20T16:31:33.947Z,11.32
2023-01-20T16:34:00.868Z,13.05
2023-01-20T16:36:28.007Z,12.55
2023-01-20T16:38:55.328Z,11.13
2023-01-20T16:41:31.074Z,12.50
2023-01-20T16:43:58.524Z,10.52
2023-01-20T16:46:29.833Z,10.15
2023-01-20T16:49:01.861Z,11.25
2023-01-20T16:51:29.597Z,11.05
2023-01-20T16:53:57.510Z,8.82
2023-01-20T16:56:29.448Z,10.27
2023-01-20T16:58:58.134Z,10.63
2023-01-20T17:01:25.947Z,10.90
2023-01-20T17:03:55.214Z,9.90
2023-01-20T17:06:25.203Z,12.90
2023-01-20T17:08:54.370Z,11.52
2023-01-20T17:11:27.221Z,10.73
2023-01-20T17:13:54.944Z,9.23
2023-01-20T17:16:22.781Z,12.93
2023-01-20T17:18:51.280Z,11.95
2023-01-20T17:21:22.063Z,11.23
2023-01-20T17:23:53.320Z,12.15
2023-01-20T17:26:21.252Z,12.32
2023-01-20T17:28:48.552Z,12.57
2023-01-20T17:31:15.365Z,10.82
2023-01-20T17:33:46.572Z,12.25
2023-01-20T17:36:13.460Z,12.45
2023-01-20T17:38:40.266Z,12.07
2023-01-20T17:41:07.845Z,12.70
2023-01-20T17:43:40.125Z,13.43
2023-01-20T17:46:14.808Z,12.02
2023-01-20T17:48:41.960Z,13.10
2023-01-20T17:51:14.166Z,11.48
2023-01-20T17:53:41.195Z,13.52
2023-01-20T17:56:12.868Z,13.02
2023-01-20T17:58:41.806Z,13.77
2023-01-20T18:01:29.602Z,14.13
2023-01-20T18:03:58.730Z,14.60
2023-01-20T18:06:27.083Z,12.85
2023-01-20T18:08:56.194Z,13.10
2023-01-20T18:11:27.030Z,14.07
2023-01-20T18:13:55.687Z,11.88
2023-01-20T18:16:24.499Z,11.85
2023-01-20T18:18:51.319Z,13.80
2023-01-20T18:21:23.319Z,13.63
2023-01-20T18:23:51.388Z,14.38
2023-01-20T18:26:20.779Z,12.80
2023-01-20T18:28:47.955Z,11.65
2023-01-20T18:31:19.673Z,14.98
2023-01-20T18:34:00.338Z,15.55
2023-01-20T18:36:30.291Z,14.23
2023-01-20T18:38:59.371Z,16.02
2023-01-20T18:41:31.090Z,12.60
2023-01-20T18:43:58.177Z,11.82
2023-01-20T18:46:26.122Z,13.77
2023-01-20T18:48:54.573Z,12.02
2023-01-20T18:51:23.943Z,13.40
2023-01-20T18:53:59.249Z,12.30
2023-01-20T18:56:27.389Z,12.82
2023-01-20T18:58:55.258Z,10.52
2023-01-20T19:01:25.015Z,11.73
2023-01-20T19:03:52.311Z,11.88
2023-01-20T19:06:21.791Z,11.18
2023-01-20T19:08:48.808Z,12.43
2023-01-20T19:11:18.567Z,8.75
2023-01-20T19:13:46.802Z,12.48
2023-01-20T19:16:13.651Z,11.93
2023-01-20T19:18:41.482Z,10.70
2023-01-20T19:21:15.057Z,10.43
2023-01-20T19:23:43.232Z,13.38
2023-01-20T19:26:13.713Z,10.88
2023-01-20T19:28:40.999Z,10.02
2023-01-20T19:31:16.479Z,11.20
2023-01-20T19:33:48.518Z,12.23
2023-01-20T19:36:17.152Z,12.65
2023-01-20T19:38:44.636Z,12.15
2023-01-20T19:41:15.705Z,14.77
2023-01-20T19:43:43.250Z,12.35
2023-01-20T19:46:20.290Z,12.93
2023-01-20T19:48:47.045Z,13.75
2023-01-20T19:51:22.216Z,13.65
2023-01-20T19:53:52.201Z,13.50
2023-01-20T19:56:20.035Z,12.15
2023-01-20T19:58:47.689Z,13.27
2023-01-20T20:01:26.292Z,14.52
2023-01-20T20:03:56.403Z,12.07
2023-01-20T20:06:36.807Z,12.00
2023-01-20T20:09:10.787Z,14.27
2023-01-20T20:11:38.038Z,12.70
2023-01-20T20:14:06.841Z,13.20
2023-01-20T20:16:35.439Z,14.00
2023-01-20T20:19:02.756Z,11.55
2023-01-20T20:21:29.475Z,12.60
2023-01-20T20:23:59.170Z,12.30
2023-01-20T20:26:30.134Z,13.13
2023-01-20T20:28:58.889Z,13.27
2023-01-20T20:31:31.488Z,14.95
2023-01-20T20:33:59.147Z,13.82
2023-01-20T20:36:31.080Z,13.63
2023-01-20T20:38:59.154Z,12.80
2023-01-20T20:41:28.887Z,12.13
2023-01-20T20:43:56.159Z,13.23
2023-01-20T20:46:24.079Z,11.93
2023-01-20T20:48:54.567Z,13.75
2023-01-20T20:51:23.711Z,11.27
2023-01-20T20:53:54.052Z,12.52
2023-01-20T20:56:20.976Z,11.55
2023-01-20T20:59:00.466Z,11.77
2023-01-20T21:01:30.176Z,12.73
2023-01-20T21:03:57.894Z,11.00
2023-01-20T21:06:25.461Z,13.10
2023-01-20T21:08:52.830Z,12.70
2023-01-20T21:11:22.321Z,10.88
2023-01-20T21:13:49.411Z,11.73
2023-01-20T21:16:20.684Z,11.95
2023-01-20T21:18:48.328Z,11.82
2023-01-20T21:21:22.092Z,12.25
2023-01-20T21:23:51.061Z,11.07
2023-01-20T21:26:17.954Z,12.45
2023-01-20T21:28:45.444Z,10.80
2023-01-20T21:31:14.318Z,12.15
2023-01-20T21:33:42.686Z,12.57
2023-01-20T21:36:12.303Z,11.40
2023-01-20T21:38:41.478Z,11.75
2023-01-20T21:41:12.397Z,11.88
2023-01-20T21:43:59.817Z,11.73
2023-01-20T21:46:38.685Z,11.70
2023-01-20T21:49:25.793Z,11.50
2023-01-20T21:52:11.254Z,10.38
2023-01-20T21:54:39.783Z,11.27
2023-01-20T21:57:06.992Z,11.55
2023-01-20T21:59:33.672Z,11.32
2023-01-20T22:02:00.414Z,11.35
2023-01-20T22:04:27.157Z,13.05
2023-01-20T22:06:53.853Z,9.63
2023-01-20T22:09:20.610Z,11.57
2023-01-20T22:11:47.406Z,10.20
2023-01-20T22:14:14.093Z,10.23
2023-01-20T22:16:40.925Z,9.18
2023-01-20T22:19:07.598Z,12.68
2023-01-20T22:21:34.325Z,10.07
2023-01-20T22:24:03.669Z,9.73
2023-01-20T22:26:30.417Z,12.30
2023-01-20T22:28:57.322Z,10.00
2023-01-20T22:31:24.863Z,7.65
2023-01-20T22:33:56.930Z,11.07
2023-01-20T22:36:24.679Z,9.35
2023-01-20T22:38:52.864Z,9.30
2023-01-20T22:41:20.281Z,10.50
2023-01-20T22:43:47.995Z,7.55
2023-01-20T22:46:17.020Z,9.15
2023-01-20T22:48:44.244Z,9.43
2023-01-20T22:51:13.395Z,10.57
2023-01-20T22:53:41.112Z,10.60
2023-01-20T22:56:13.274Z,8.90
2023-01-20T22:58:40.935Z,8.98
2023-01-20T23:01:14.440Z,10.00
2023-01-20T23:03:41.911Z,11.80
2023-01-20T23:06:09.683Z,9.77
2023-01-20T23:08:37.004Z,10.00
2023-01-20T23:11:07.945Z,7.43
2023-01-20T23:13:35.300Z,10.77
2023-01-20T23:16:04.840Z,10.73
2023-01-20T23:18:32.655Z,9.90
2023-01-20T23:20:59.928Z,10.38
2023-01-20T23:23:27.659Z,10.23
2023-01-20T23:26:05.933Z,11.10
2023-01-20T23:28:32.813Z,11.40
2023-01-20T23:31:04.753Z,9.90
2023-01-20T23:33:31.717Z,9.25
2023-01-20T23:36:16.993Z,11.25
2023-01-20T23:38:44.501Z,10.15
2023-01-20T23:41:12.069Z,9.75
2023-01-20T23:43:39.065Z,9.68
2023-01-20T23:46:06.696Z,10.20
2023-01-20T23:48:34.503Z,10.35
2023-01-20T23:51:02.035Z,9.20
2023-01-20T23:53:31.251Z,10.38
2023-01-20T23:56:02.781Z,11.57
2023-01-20T23:58:29.882Z,9.98
